KCBM/CBM METAR and TAF weather

Enter ICAO airport designator
Station Type Date Time Source
KCBM METAR 2021/09/16 20:56 UTC NOAA

KCBM 162056Z AUTO 10009KT 8SM SCT018 BKN023 BKN050 25/23 A2991 RMK AO2 CIG 019V025 CIG 013 RWY31C SLP129 60001 T02500227 57014 $


Station Type Date Time Source
KCBM Decoded METAR 2021/09/16 20:56 UTC NOAA

Columbus Air Force Base, MS, United States (KCBM) 33-39N 088-27W
Sep 16, 2021 - 04:56 PM EDT / 2021.09.16 2056 UTC
Wind: from the E (100 degrees) at 10 MPH (9 KT):0
Visibility: 8 mile(s):0
Sky conditions: mostly cloudy
Temperature: 77.0 F (25.0 C)
Dew Point: 72.9 F (22.7 C)
Relative Humidity: 87%
Pressure (altimeter): 29.91 in. Hg (1012 hPa)
Pressure tendency: 0.04 inches (1.4 hPa) lower than three hours ago
ob: KCBM 162056Z AUTO 10009KT 8SM SCT018 BKN023 BKN050 25/23 A2991 RMK AO2 CIG 019V025 CIG 013 RWY31C SLP129 60001 T02500227 57014
cycle: 21

Station Type Date Time Source
KCBM TAF 2021/09/16 20:51 UTC NOAA

TAF TAF
AMD KCBM 162050Z 1620/1723 10008KT 9999 VCSH BKN025 QNH2987INS
TEMPO 1622/1623 9000 -SHRA
BECMG 1622/1623 10008KT 9999 NSW OVC012 QNH2987INS
BECMG 1707/1708 11006KT 8000 BR OVC007 QNH2993INS
BECMG 1714/1715 12006KT 9999 NSW OVC015 QNH2994INS TX25/1620Z TN23/1708Z

Example: see airport list